createdAt,value
2017-11-17T00:02:14.302Z,10.77
2017-11-17T00:04:44.826Z,7.10
2017-11-17T00:07:16.381Z,8.83
2017-11-17T00:09:46.835Z,13.83
2017-11-17T00:12:17.325Z,9.17
2017-11-17T00:14:48.628Z,14.23
2017-11-17T00:17:19.119Z,12.20
2017-11-17T00:19:50.002Z,7.63
2017-11-17T00:22:20.538Z,12.40
2017-11-17T00:24:51.130Z,9.93
2017-11-17T00:27:21.656Z,13.43
2017-11-17T00:29:52.251Z,13.67
2017-11-17T00:32:23.919Z,8.87
2017-11-17T00:34:55.254Z,17.53
2017-11-17T00:37:26.999Z,12.53
2017-11-17T00:39:57.442Z,12.90
2017-11-17T00:42:28.805Z,13.50
2017-11-17T00:44:59.326Z,14.53
2017-11-17T00:47:30.640Z,9.40
2017-11-17T00:50:01.509Z,16.70
2017-11-17T00:52:32.782Z,16.23
2017-11-17T00:55:03.385Z,19.80
2017-11-17T00:57:34.768Z,13.40
2017-11-17T01:00:05.307Z,7.10
2017-11-17T01:02:37.142Z,12.60
2017-11-17T01:05:07.584Z,15.70
2017-11-17T01:07:38.464Z,14.07
2017-11-17T01:10:08.915Z,12.07
2017-11-17T01:12:40.252Z,14.33
2017-11-17T01:15:11.504Z,7.63
2017-11-17T01:17:42.780Z,5.70
2017-11-17T01:20:13.612Z,6.67
2017-11-17T01:22:44.176Z,12.93
2017-11-17T01:25:14.659Z,20.30
2017-11-17T01:27:45.135Z,9.13
2017-11-17T01:30:15.649Z,8.83
2017-11-17T01:32:46.615Z,10.20
2017-11-17T01:35:17.170Z,6.30
2017-11-17T01:37:48.830Z,5.63
2017-11-17T01:40:20.060Z,6.53
2017-11-17T01:42:50.621Z,5.97
2017-11-17T01:45:21.126Z,8.50
2017-11-17T01:47:52.395Z,4.93
2017-11-17T01:50:23.145Z,4.50
2017-11-17T01:52:53.654Z,4.03
2017-11-17T01:55:24.143Z,4.07
2017-11-17T01:57:54.737Z,5.03
2017-11-17T02:00:25.253Z,4.40
2017-11-17T02:02:55.682Z,7.03
2017-11-17T02:05:26.190Z,4.23
2017-11-17T02:07:57.146Z,5.37
2017-11-17T02:10:27.688Z,3.90
2017-11-17T02:12:58.176Z,7.67
2017-11-17T02:15:29.451Z,4.00
2017-11-17T02:17:59.971Z,4.87
2017-11-17T02:20:30.585Z,4.10
2017-11-17T02:23:01.788Z,3.57
2017-11-17T02:25:32.543Z,3.50
2017-11-17T02:28:02.996Z,3.90
2017-11-17T02:30:34.273Z,3.90
2017-11-17T02:33:04.899Z,7.60
2017-11-17T02:35:35.493Z,4.40
2017-11-17T02:38:07.271Z,5.43
2017-11-17T02:40:37.803Z,7.87
2017-11-17T02:43:08.345Z,4.10
2017-11-17T02:45:38.847Z,13.50
2017-11-17T02:48:10.232Z,4.17
2017-11-17T02:50:40.715Z,4.17
2017-11-17T02:53:12.027Z,5.37
2017-11-17T02:55:42.883Z,4.10
2017-11-17T02:58:13.428Z,2.70
2017-11-17T03:00:45.054Z,2.97
2017-11-17T03:03:15.610Z,2.87
2017-11-17T03:05:46.863Z,2.30
2017-11-17T03:08:18.285Z,2.47
2017-11-17T03:10:48.839Z,2.40
2017-11-17T03:13:20.159Z,3.67
2017-11-17T03:15:50.659Z,3.00
2017-11-17T03:18:21.182Z,4.50
2017-11-17T03:20:52.146Z,2.00
2017-11-17T03:23:22.639Z,2.33
2017-11-17T03:25:53.614Z,1.80
2017-11-17T03:28:24.203Z,1.70
2017-11-17T03:30:54.852Z,1.87
2017-11-17T03:33:25.346Z,1.73
2017-11-17T03:35:56.617Z,2.90
2017-11-17T03:38:27.260Z,1.17
2017-11-17T03:40:57.772Z,1.60
2017-11-17T03:43:28.302Z,2.13
2017-11-17T03:45:58.842Z,2.63
2017-11-17T03:48:29.276Z,7.80
2017-11-17T03:51:00.190Z,2.33
2017-11-17T03:53:30.796Z,1.60
2017-11-17T03:56:02.555Z,2.00
2017-11-17T03:58:33.869Z,2.57
2017-11-17T04:01:04.371Z,2.60
2017-11-17T04:03:34.890Z,1.57
2017-11-17T04:06:05.332Z,5.43
2017-11-17T04:08:35.924Z,2.70
2017-11-17T04:11:07.382Z,5.23
2017-11-17T04:13:38.734Z,2.70
2017-11-17T04:16:09.272Z,5.83
2017-11-17T04:18:39.756Z,3.30
2017-11-17T04:21:10.598Z,3.73
2017-11-17T04:23:41.182Z,3.77
2017-11-17T04:26:11.735Z,4.03
2017-11-17T04:28:42.228Z,3.37
2017-11-17T04:31:12.752Z,4.30
2017-11-17T04:33:43.375Z,5.07
2017-11-17T04:36:13.892Z,5.77
2017-11-17T04:38:45.650Z,4.80
2017-11-17T04:41:16.918Z,6.40
2017-11-17T04:43:47.542Z,5.67
2017-11-17T04:46:17.979Z,4.73
2017-11-17T04:48:48.483Z,4.80
2017-11-17T04:51:19.629Z,4.67
2017-11-17T04:53:50.920Z,4.97
2017-11-17T04:56:21.897Z,3.43
2017-11-17T04:58:53.195Z,2.70
2017-11-17T05:01:23.746Z,4.30
2017-11-17T05:03:55.133Z,3.17
2017-11-17T05:06:26.382Z,3.73
2017-11-17T05:08:58.088Z,3.07
2017-11-17T05:11:28.558Z,2.93
2017-11-17T05:14:00.249Z,3.30
2017-11-17T05:16:30.779Z,4.00
2017-11-17T05:19:01.307Z,3.57
2017-11-17T05:21:31.758Z,2.90
2017-11-17T05:24:02.180Z,3.00
2017-11-17T05:26:33.166Z,5.10
2017-11-17T05:29:04.360Z,10.30
2017-11-17T05:31:34.835Z,22.83
2017-11-17T05:34:06.064Z,16.60
2017-11-17T05:36:36.504Z,9.97
2017-11-17T05:39:07.490Z,8.87
2017-11-17T05:41:37.983Z,12.43
2017-11-17T05:44:09.565Z,12.87
2017-11-17T05:46:40.144Z,8.57
2017-11-17T05:49:10.695Z,10.53
2017-11-17T05:51:41.938Z,8.10
2017-11-17T05:54:13.214Z,8.20
2017-11-17T05:56:44.176Z,7.83
2017-11-17T05:59:14.869Z,6.77
2017-11-17T06:01:45.360Z,5.83
2017-11-17T06:04:15.886Z,7.03
2017-11-17T06:06:46.408Z,10.93
2017-11-17T06:09:17.297Z,12.30
2017-11-17T06:11:48.540Z,7.27
2017-11-17T06:14:19.323Z,11.87
2017-11-17T06:16:49.794Z,7.13
2017-11-17T06:19:21.074Z,10.27
2017-11-17T06:21:51.506Z,11.33
2017-11-17T06:27:07.027Z,14.33
2017-11-17T06:29:39.206Z,11.53
2017-11-17T06:32:09.762Z,9.60
2017-11-17T06:34:41.069Z,15.37
2017-11-17T06:37:11.594Z,17.00
2017-11-17T06:39:42.573Z,13.07
2017-11-17T06:42:13.875Z,15.87
2017-11-17T06:44:44.452Z,15.53
2017-11-17T06:47:15.738Z,12.53
2017-11-17T06:49:46.383Z,12.20
2017-11-17T06:52:16.976Z,12.47
2017-11-17T06:54:47.690Z,12.83
2017-11-17T06:57:19.327Z,14.50
2017-11-17T06:59:49.840Z,18.37
2017-11-17T07:02:20.330Z,11.97
2017-11-17T07:04:50.875Z,10.93
2017-11-17T07:07:21.401Z,8.80
2017-11-17T07:09:52.218Z,5.03
2017-11-17T07:12:22.745Z,3.27
2017-11-17T07:14:53.559Z,3.77
2017-11-17T07:17:24.818Z,3.40
2017-11-17T07:19:56.053Z,4.03
2017-11-17T07:22:27.279Z,3.20
2017-11-17T07:24:57.772Z,3.63
2017-11-17T07:27:28.652Z,3.77
2017-11-17T07:29:59.168Z,11.67
2017-11-17T07:32:29.711Z,3.20
2017-11-17T07:35:00.287Z,3.50
2017-11-17T07:37:30.768Z,2.23
2017-11-17T07:40:01.681Z,2.57
2017-11-17T07:42:32.223Z,2.63
2017-11-17T07:45:02.877Z,2.50
2017-11-17T07:47:34.110Z,2.73
2017-11-17T07:50:04.699Z,2.60
2017-11-17T07:52:35.207Z,2.73
2017-11-17T07:55:05.754Z,3.10
2017-11-17T07:57:36.629Z,2.30
2017-11-17T08:00:07.218Z,2.70
2017-11-17T08:02:37.706Z,1.93
2017-11-17T08:05:08.911Z,1.87
2017-11-17T08:07:39.483Z,2.23
2017-11-17T08:10:11.244Z,2.63
2017-11-17T08:12:42.522Z,1.90
2017-11-17T08:15:13.370Z,6.90
2017-11-17T08:17:54.362Z,1.77
2017-11-17T08:20:24.866Z,2.20
2017-11-17T08:22:55.258Z,2.13
2017-11-17T08:25:26.516Z,2.70
2017-11-17T08:27:57.543Z,2.10
2017-11-17T08:30:28.852Z,3.23
2017-11-17T08:32:59.280Z,10.00
2017-11-17T08:35:29.764Z,4.40
2017-11-17T08:38:00.358Z,3.00
2017-11-17T08:40:31.214Z,7.30
2017-11-17T08:43:02.580Z,5.03
2017-11-17T08:45:33.374Z,2.93
2017-11-17T08:48:03.964Z,3.70
2017-11-17T08:50:34.468Z,11.93
2017-11-17T08:53:04.968Z,10.60
2017-11-17T08:55:35.493Z,9.10
2017-11-17T08:58:06.403Z,4.30
2017-11-17T09:00:36.933Z,2.63
2017-11-17T09:03:07.434Z,3.20
2017-11-17T09:05:37.953Z,7.77
2017-11-17T09:08:08.468Z,3.33
2017-11-17T09:10:40.213Z,5.13
2017-11-17T09:13:11.453Z,3.30
2017-11-17T09:15:42.987Z,12.67
2017-11-17T09:18:13.420Z,10.73
2017-11-17T09:20:43.901Z,9.83
2017-11-17T09:23:14.458Z,12.70
2017-11-17T09:25:44.885Z,10.10
2017-11-17T09:28:15.890Z,16.90
2017-11-17T09:30:46.450Z,25.30
2017-11-17T09:33:16.976Z,21.43
2017-11-17T09:35:47.476Z,12.77
2017-11-17T09:38:18.011Z,5.47
2017-11-17T09:40:48.682Z,9.23
2017-11-17T09:43:19.215Z,5.37
2017-11-17T09:45:50.053Z,3.57
2017-11-17T09:48:20.614Z,7.33
2017-11-17T09:50:51.900Z,10.80
2017-11-17T09:53:22.383Z,4.13
2017-11-17T09:55:53.711Z,3.83
2017-11-17T09:58:24.695Z,3.33
2017-11-17T10:00:55.217Z,6.73
2017-11-17T10:03:25.998Z,15.90
2017-11-17T10:05:56.568Z,7.80
2017-11-17T10:08:27.934Z,8.90
2017-11-17T10:10:58.478Z,8.63
2017-11-17T10:13:29.465Z,12.50
2017-11-17T10:16:00.890Z,5.10
2017-11-17T10:18:31.737Z,3.47
2017-11-17T10:21:02.333Z,5.90
2017-11-17T10:23:32.801Z,4.40
2017-11-17T10:26:03.359Z,6.53
2017-11-17T10:28:35.022Z,7.53
2017-11-17T10:31:06.395Z,4.70
2017-11-17T10:33:37.266Z,8.37
2017-11-17T10:36:07.768Z,3.50
2017-11-17T10:38:38.282Z,6.97
2017-11-17T10:41:08.831Z,4.73
2017-11-17T10:43:39.359Z,5.20
2017-11-17T10:46:10.233Z,4.13
2017-11-17T10:48:40.797Z,9.30
2017-11-17T10:51:11.375Z,12.07
2017-11-17T10:53:41.834Z,5.60
2017-11-17T10:56:18.202Z,4.80
2017-11-17T10:58:49.700Z,4.60
2017-11-17T11:01:20.147Z,9.30
2017-11-17T11:03:51.120Z,9.50
2017-11-17T11:06:22.417Z,8.13
2017-11-17T11:08:52.883Z,6.47
2017-11-17T11:11:28.316Z,5.40
2017-11-17T11:13:58.848Z,6.33
2017-11-17T11:16:29.602Z,15.97
2017-11-17T11:19:00.934Z,7.93
2017-11-17T11:21:31.410Z,8.30
2017-11-17T11:24:01.864Z,7.50
2017-11-17T11:26:32.456Z,7.63
2017-11-17T11:29:02.983Z,11.27
2017-11-17T11:31:33.567Z,6.93
2017-11-17T11:34:04.606Z,12.63
2017-11-17T11:36:35.152Z,12.17
2017-11-17T11:39:05.904Z,10.10
2017-11-17T11:41:37.080Z,10.23
2017-11-17T11:44:07.496Z,14.50
2017-11-17T11:46:38.319Z,17.50
2017-11-17T11:49:08.911Z,12.27
2017-11-17T11:51:39.363Z,9.83
2017-11-17T11:54:10.676Z,14.13
2017-11-17T11:56:41.183Z,11.43
2017-11-17T11:59:12.167Z,14.53
2017-11-17T12:01:42.684Z,9.90
2017-11-17T12:04:13.622Z,13.33
2017-11-17T12:06:44.188Z,10.17
2017-11-17T12:09:15.525Z,7.83
2017-11-17T12:11:46.765Z,10.10
2017-11-17T12:14:18.044Z,10.97
2017-11-17T12:16:48.744Z,7.20
2017-11-17T12:19:20.060Z,15.03
2017-11-17T12:21:50.547Z,8.93
2017-11-17T12:24:21.130Z,20.70
2017-11-17T12:26:51.547Z,11.17
2017-11-17T12:29:22.151Z,10.10
2017-11-17T12:31:52.683Z,7.27
2017-11-17T12:34:23.409Z,11.03
2017-11-17T12:36:53.978Z,11.00
2017-11-17T12:39:24.415Z,8.07
2017-11-17T12:41:55.026Z,8.73
2017-11-17T12:44:25.497Z,14.50
2017-11-17T12:46:56.930Z,8.80
2017-11-17T12:49:28.195Z,9.93
2017-11-17T12:51:59.425Z,15.10
2017-11-17T12:54:30.735Z,8.03
2017-11-17T12:57:01.254Z,8.60
2017-11-17T12:59:32.156Z,11.83
2017-11-17T13:02:02.704Z,7.87
2017-11-17T13:04:33.493Z,9.13
2017-11-17T13:07:04.239Z,19.40
2017-11-17T13:09:35.452Z,18.90
2017-11-17T13:12:06.013Z,8.80
2017-11-17T13:14:36.518Z,15.43
2017-11-17T13:17:07.361Z,11.67
2017-11-17T13:19:37.792Z,9.73
2017-11-17T13:22:08.456Z,14.93
2017-11-17T13:24:38.933Z,10.67
2017-11-17T13:27:09.443Z,13.37
2017-11-17T13:29:39.941Z,18.20
2017-11-17T13:32:10.498Z,10.10
2017-11-17T13:34:41.380Z,11.57
2017-11-17T13:37:11.922Z,25.67
2017-11-17T13:39:43.239Z,46.07
2017-11-17T13:42:13.748Z,20.27
2017-11-17T13:44:44.190Z,22.47
2017-11-17T13:47:14.860Z,37.77
2017-11-17T13:49:46.143Z,14.90
2017-11-17T13:52:17.159Z,22.47
2017-11-17T13:54:47.667Z,14.37
2017-11-17T13:57:18.996Z,65.67
2017-11-17T13:59:49.498Z,37.30
2017-11-17T14:02:19.971Z,19.80
2017-11-17T14:04:51.734Z,12.77
2017-11-17T14:07:23.011Z,19.40
2017-11-17T14:09:53.549Z,17.97
2017-11-17T14:12:24.864Z,15.00
2017-11-17T14:14:56.170Z,9.87
2017-11-17T14:17:26.974Z,14.07
2017-11-17T14:19:57.447Z,16.53
2017-11-17T14:22:28.511Z,27.03
2017-11-17T14:24:59.722Z,20.50
2017-11-17T14:27:30.272Z,14.93
2017-11-17T14:30:01.554Z,15.90
2017-11-17T14:32:32.099Z,19.13
2017-11-17T14:35:02.718Z,22.50
2017-11-17T14:37:33.283Z,30.13
2017-11-17T14:40:04.067Z,25.23
2017-11-17T14:42:34.609Z,25.10
2017-11-17T14:45:05.217Z,26.00
2017-11-17T14:47:36.992Z,30.00
2017-11-17T14:50:07.508Z,26.53
2017-11-17T14:52:39.258Z,52.37
2017-11-17T14:55:10.530Z,42.10
2017-11-17T14:57:42.061Z,44.17
2017-11-17T15:00:13.447Z,42.93
2017-11-17T15:02:44.046Z,34.47
2017-11-17T15:05:15.779Z,31.77
2017-11-17T15:07:46.174Z,34.80
2017-11-17T15:10:16.718Z,29.13
2017-11-17T15:12:47.222Z,31.03
2017-11-17T15:15:17.758Z,25.40
2017-11-17T15:17:48.721Z,24.00
2017-11-17T15:20:24.413Z,27.47
2017-11-17T15:22:55.234Z,23.07
2017-11-17T15:25:26.506Z,25.70
2017-11-17T15:27:57.033Z,31.80
2017-11-17T15:30:27.509Z,31.17
2017-11-17T15:32:58.045Z,27.37
2017-11-17T15:35:28.900Z,26.63
2017-11-17T15:38:00.167Z,24.53
2017-11-17T15:40:30.699Z,29.57
2017-11-17T15:43:01.199Z,21.47
2017-11-17T15:45:32.390Z,25.23
2017-11-17T15:48:02.905Z,28.27
2017-11-17T15:50:33.473Z,21.13
2017-11-17T15:53:04.497Z,16.30
2017-11-17T15:55:35.011Z,29.87
2017-11-17T15:58:05.548Z,20.10
2017-11-17T16:00:36.270Z,37.03
2017-11-17T16:03:06.845Z,27.87
2017-11-17T16:05:37.274Z,26.20
2017-11-17T16:08:07.854Z,26.03
2017-11-17T16:10:38.658Z,24.30
2017-11-17T16:13:10.041Z,30.70
2017-11-17T16:15:40.478Z,23.67
2017-11-17T16:18:11.030Z,22.70
2017-11-17T16:20:41.574Z,26.03
2017-11-17T16:23:12.536Z,31.60
2017-11-17T16:25:44.323Z,28.17
2017-11-17T16:28:16.013Z,26.00
2017-11-17T16:30:46.929Z,35.30
2017-11-17T16:33:17.873Z,30.90
2017-11-17T16:35:48.825Z,20.07
2017-11-17T16:38:19.658Z,20.43
2017-11-17T16:40:50.937Z,38.73
2017-11-17T16:43:21.827Z,27.53
2017-11-17T16:45:53.482Z,21.87
2017-11-17T16:48:24.340Z,37.40
2017-11-17T16:50:55.116Z,31.23
2017-11-17T16:53:27.245Z,26.23
2017-11-17T16:55:58.142Z,34.87
2017-11-17T16:58:29.357Z,28.73
2017-11-17T17:01:01.039Z,22.97
2017-11-17T17:03:31.952Z,24.70
2017-11-17T17:06:03.722Z,24.87
2017-11-17T17:08:34.281Z,31.57
2017-11-17T17:11:05.236Z,26.20
2017-11-17T17:13:35.738Z,21.57
2017-11-17T17:16:06.275Z,18.83
2017-11-17T17:18:36.821Z,33.50
2017-11-17T17:21:07.373Z,37.07
2017-11-17T17:23:39.083Z,23.37
2017-11-17T17:26:09.567Z,21.80
2017-11-17T17:28:40.392Z,20.43
2017-11-17T17:31:11.511Z,13.27
2017-11-17T17:33:42.468Z,15.30
2017-11-17T17:36:13.346Z,20.77
2017-11-17T17:38:45.041Z,17.43
2017-11-17T17:41:16.209Z,11.97
2017-11-17T17:43:47.151Z,11.07
2017-11-17T17:46:18.014Z,14.13
2017-11-17T17:48:49.724Z,12.20
2017-11-17T17:51:20.622Z,12.53
2017-11-17T17:53:52.764Z,17.33
2017-11-17T17:56:24.468Z,16.97
2017-11-17T17:58:55.764Z,20.57
2017-11-17T18:01:26.549Z,15.53
2017-11-17T18:03:57.474Z,10.63
2017-11-17T18:06:28.454Z,25.10
2017-11-17T18:08:59.409Z,14.13
2017-11-17T18:11:30.564Z,23.83
2017-11-17T18:14:01.996Z,15.93
2017-11-17T18:16:33.077Z,11.07
2017-11-17T18:19:03.958Z,12.00
2017-11-17T18:21:34.437Z,13.70
2017-11-17T18:24:05.898Z,16.90
2017-11-17T18:26:36.594Z,12.67
2017-11-17T18:29:07.557Z,11.73
2017-11-17T18:31:38.899Z,10.33
2017-11-17T18:34:10.171Z,12.93
2017-11-17T18:36:40.637Z,21.63
2017-11-17T18:39:11.151Z,11.00
2017-11-17T18:41:41.960Z,14.07
2017-11-17T18:44:12.541Z,17.77
2017-11-17T18:46:43.083Z,10.60
2017-11-17T18:49:13.600Z,10.37
2017-11-17T18:51:44.172Z,23.83
2017-11-17T18:54:16.002Z,13.00
2017-11-17T18:56:46.514Z,22.77
2017-11-17T18:59:17.742Z,14.17
2017-11-17T19:01:48.292Z,10.27
2017-11-17T19:04:18.958Z,13.53
2017-11-17T19:06:50.220Z,16.80
2017-11-17T19:09:20.821Z,10.97
2017-11-17T19:11:52.586Z,17.20
2017-11-17T19:14:23.872Z,14.30
2017-11-17T19:16:54.377Z,10.97
2017-11-17T19:19:24.950Z,18.20
2017-11-17T19:21:55.423Z,19.90
2017-11-17T19:24:27.172Z,10.97
2017-11-17T19:26:58.427Z,15.63
2017-11-17T19:29:30.109Z,17.33
2017-11-17T19:32:00.607Z,10.60
2017-11-17T19:34:46.289Z,16.70
2017-11-17T19:37:17.448Z,19.23
2017-11-17T19:39:47.923Z,10.30
2017-11-17T19:42:18.880Z,13.57
2017-11-17T19:44:49.391Z,26.53
2017-11-17T19:47:19.864Z,21.50
2017-11-17T19:49:51.183Z,14.77
2017-11-17T19:52:21.609Z,19.60
2017-11-17T19:54:52.554Z,12.60
2017-11-17T19:57:23.015Z,18.87
2017-11-17T19:59:53.614Z,11.73
2017-11-17T20:02:24.111Z,12.20
2017-11-17T20:04:54.625Z,17.13
2017-11-17T20:07:25.114Z,14.97
2017-11-17T20:09:56.378Z,11.47
2017-11-17T20:12:27.175Z,21.07
2017-11-17T20:14:57.597Z,11.90
2017-11-17T20:17:27.951Z,13.93
2017-11-17T20:19:59.451Z,17.20
2017-11-17T20:22:36.936Z,19.20
2017-11-17T20:25:07.905Z,15.70
2017-11-17T20:27:38.383Z,11.80
2017-11-17T20:30:09.128Z,16.37
2017-11-17T20:32:39.628Z,16.50
2017-11-17T20:35:10.879Z,10.93
2017-11-17T20:37:41.328Z,15.60
2017-11-17T20:40:11.867Z,28.30
2017-11-17T20:42:42.850Z,13.83
2017-11-17T20:45:14.096Z,11.13
2017-11-17T20:47:44.568Z,10.67
2017-11-17T20:50:15.100Z,22.30
2017-11-17T20:52:45.590Z,15.17
2017-11-17T20:55:17.172Z,8.17
2017-11-17T20:57:47.643Z,13.03
2017-11-17T21:00:18.615Z,12.73
2017-11-17T21:02:49.826Z,19.70
2017-11-17T21:05:21.117Z,23.37
2017-11-17T21:07:52.403Z,13.43
2017-11-17T21:10:22.903Z,19.10
2017-11-17T21:12:53.902Z,12.20
2017-11-17T21:15:24.420Z,23.07
2017-11-17T21:17:54.887Z,13.07
2017-11-17T21:20:25.403Z,6.80
2017-11-17T21:22:56.649Z,7.27
2017-11-17T21:25:28.206Z,10.07
2017-11-17T21:27:59.373Z,6.57
2017-11-17T21:30:29.990Z,14.53
2017-11-17T21:33:00.464Z,16.83
2017-11-17T21:35:30.986Z,9.60
2017-11-17T21:38:01.500Z,10.00
2017-11-17T21:40:31.996Z,18.17
2017-11-17T21:43:03.723Z,15.03
2017-11-17T21:45:34.263Z,9.50
2017-11-17T21:48:04.780Z,11.43
2017-11-17T21:50:35.271Z,9.10
2017-11-17T21:53:05.811Z,13.80
2017-11-17T21:55:36.659Z,7.40
2017-11-17T21:58:07.152Z,20.57
2017-11-17T22:00:38.018Z,12.03
2017-11-17T22:03:08.568Z,14.53
2017-11-17T22:05:39.086Z,8.60
2017-11-17T22:08:09.552Z,11.50
2017-11-17T22:10:40.827Z,6.70
2017-11-17T22:13:11.664Z,7.73
2017-11-17T22:15:42.161Z,13.50
2017-11-17T22:18:13.443Z,11.33
2017-11-17T22:20:43.892Z,8.23
2017-11-17T22:23:14.396Z,14.70
2017-11-17T22:25:44.931Z,8.27
2017-11-17T22:28:15.404Z,8.93
2017-11-17T22:30:46.355Z,12.97
2017-11-17T22:33:17.576Z,13.77
2017-11-17T22:35:48.115Z,6.87
2017-11-17T22:38:18.588Z,6.27
2017-11-17T22:40:49.147Z,15.97
2017-11-17T22:43:19.989Z,6.77
2017-11-17T22:45:50.481Z,9.07
2017-11-17T22:48:21.379Z,6.77
2017-11-17T22:50:51.930Z,29.57
2017-11-17T22:53:23.155Z,12.00
2017-11-17T22:55:53.662Z,6.37
2017-11-17T22:58:24.164Z,10.77
2017-11-17T23:00:54.851Z,11.07
2017-11-17T23:03:26.112Z,10.30
2017-11-17T23:05:57.372Z,11.20
2017-11-17T23:08:27.830Z,11.40
2017-11-17T23:10:58.366Z,7.60
2017-11-17T23:13:29.162Z,10.87
2017-11-17T23:15:59.640Z,8.27
2017-11-17T23:18:30.567Z,7.17
2017-11-17T23:21:01.036Z,6.00
2017-11-17T23:23:32.248Z,6.77
2017-11-17T23:26:02.772Z,19.50
2017-11-17T23:28:33.262Z,8.70
2017-11-17T23:31:04.076Z,12.67
2017-11-17T23:33:35.350Z,8.73
2017-11-17T23:36:05.895Z,11.43
2017-11-17T23:38:36.369Z,11.27
2017-11-17T23:41:07.666Z,15.77
2017-11-17T23:43:38.535Z,7.77
2017-11-17T23:46:08.967Z,6.73
2017-11-17T23:48:39.942Z,11.17
2017-11-17T23:51:10.427Z,16.10
2017-11-17T23:53:40.926Z,9.67
2017-11-17T23:56:11.392Z,9.97
2017-11-17T23:58:41.832Z,12.03
